Vesper, Wisconsin
Current Conditions -  °F | °C
As of 3:35 AM on Saturday 25 Oct 2014 (Local Time) from KISW Reporting Station
Haze Haze  
Wind Chill: 55°   Ceiling: Unl
Heat Index: 55°   Visibility: 5mi
Dew Point: 53°   Wind: 8mph
Humidity: 93%   Direction: 260°W
Pressure: 29.87"   Gusts: NA
Location:  44.48°N, 89.96°W
Report Text: KISW 250835Z AUTO 26007KT 5SM BR SCT006 13/12 A2987 RMK AO2 T01280117
Loading
Personal Weather Stations






























Interactive Weather Map
Tropical Storm Tracking
New forecast layout! Learn more

10-Day Weather Forecast

Advertisements
Track Severe Weather on mobile